Time;durP1;ratioP1;P1;durP2;ratioP2;P2;SDS_P1;SDS_P2;PMS_P1;PMS_P2;Temp;Humidity;BMP_temperature;BMP_pressure;BME280_temperature;BME280_humidity;BME280_pressure;Samples;Min_cycle;Max_cycle;Signal;HPM_P1;HPM_P2
2021/03/12 00:02:09;;;;;;;;;;;;;;;5.97;96.32;99686.38;5025682;28;19975;-81
2021/03/12 00:04:35;;;;;;;;;;;;;;;5.95;95.98;99683.03;5025392;28;20370;-83
2021/03/12 00:07:00;;;;;;;;;;;;;;;5.93;96.57;99685.03;5022965;28;19929;-82
2021/03/12 00:09:25;;;;;;;;;;;;;;;5.88;97.21;99680.16;5027615;28;19944;-86
2021/03/12 00:11:52;;;;;;;;;;;;;;;5.85;97.75;99698.28;5006593;28;20242;-81
2021/03/12 00:14:18;;;;;;;;;;;;;;;5.79;97.96;99707.75;5025469;28;20336;-82
2021/03/12 00:16:43;;;;;;;;;;;;;;;5.76;98.03;99691.25;5037138;28;20012;-82
2021/03/12 00:19:08;;;;;;;;;;;;;;;5.74;98.01;99694.06;5029275;28;19956;-85
2021/03/12 00:21:33;;;;;;;;;;;;;;;5.73;97.93;99691.59;5021718;28;20259;-87
2021/03/12 00:23:59;;;;;;;;;;;;;;;5.74;98.24;99717.19;5006511;28;19925;-84
2021/03/12 00:26:25;;;;;;;;;;;;;;;5.72;98.40;99720.00;5026320;28;20027;-83
2021/03/12 00:28:51;;;;;;;;;;;;;;;5.70;98.71;99732.66;5018713;28;19925;-82
2021/03/12 00:31:16;;;;;;;;;;;;;;;5.71;98.99;99733.50;5026929;28;19944;-83
2021/03/12 00:33:43;;;;;;;;;;;;;;;5.70;99.34;99730.00;5022550;28;19921;-85
2021/03/12 00:36:08;;;;;;;;;;;;;;;5.68;99.67;99739.97;5023259;28;19927;-80
2021/03/12 00:38:34;;;;;;;;;;;;;;;5.68;100.00;99739.13;5026345;28;19921;-81
2021/03/12 00:41:00;;;;;;;;;;;;;;;5.65;99.82;99746.44;5025853;28;19921;-86
2021/03/12 00:43:26;;;;;;;;;;;;;;;5.65;99.75;99733.13;5024775;28;19921;-82
2021/03/12 00:45:53;;;;;;;;;;;;;;;5.66;99.68;99744.59;5024447;28;19944;-81
2021/03/12 00:48:18;;;;;;;;;;;;;;;5.68;99.54;99771.06;5027567;28;20383;-83
2021/03/12 00:50:44;;;;;;;;;;;;;;;5.69;98.99;99759.44;5024680;28;19921;-82
2021/03/12 00:53:10;;;;;;;;;;;;;;;5.69;98.81;99767.41;5026638;28;19924;-84
2021/03/12 00:55:36;;;;;;;;;;;;;;;5.70;98.30;99767.28;5025055;28;19921;-83
2021/03/12 00:58:02;;;;;;;;;;;;;;;5.72;97.80;99778.56;5011790;28;19921;-83
2021/03/12 01:00:28;;;;;;;;;;;;;;;5.74;97.11;99781.09;5023189;28;19921;-82
2021/03/12 01:02:53;;;;;;;;;;;;;;;5.75;97.18;99785.41;5024248;28;20660;-82
2021/03/12 01:05:19;;;;;;;;;;;;;;;5.75;96.89;99783.56;5025169;28;19921;-81
2021/03/12 01:07:45;;;;;;;;;;;;;;;5.78;96.84;99793.94;5025621;28;19979;-82
2021/03/12 01:10:11;;;;;;;;;;;;;;;5.80;96.92;99785.78;5024852;28;19929;-83
2021/03/12 01:12:36;;;;;;;;;;;;;;;5.80;96.48;99802.59;5041000;28;19921;-83
2021/03/12 01:15:05;;;;;;;;;;;;;;;5.80;96.42;99799.09;5020973;28;20024;-82
2021/03/12 01:17:31;;;;;;;;;;;;;;;5.80;96.10;99809.75;5026940;28;19925;-82
2021/03/12 01:19:56;;;;;;;;;;;;;;;5.82;94.86;99807.75;5022963;28;19971;-82
2021/03/12 01:22:22;;;;;;;;;;;;;;;5.83;95.29;99809.41;5021731;28;20339;-80
2021/03/12 01:24:47;;;;;;;;;;;;;;;5.82;95.46;99821.06;5023300;28;19925;-82
2021/03/12 01:27:12;;;;;;;;;;;;;;;5.80;95.85;99815.06;5025902;28;19965;-85
2021/03/12 01:29:38;;;;;;;;;;;;;;;5.78;94.89;99815.25;5024399;28;19929;-81
2021/03/12 01:32:03;;;;;;;;;;;;;;;5.77;95.64;99823.38;5023950;28;19921;-84
2021/03/12 01:34:28;;;;;;;;;;;;;;;5.76;95.48;99801.25;5025992;28;20388;-82
2021/03/12 01:36:54;;;;;;;;;;;;;;;5.75;95.14;99812.88;5006384;28;19925;-83
2021/03/12 01:39:19;;;;;;;;;;;;;;;5.76;94.89;99824.38;5043492;28;19960;-81
2021/03/12 01:41:45;;;;;;;;;;;;;;;5.76;94.74;99840.34;5025838;28;19972;-83
2021/03/12 01:44:10;;;;;;;;;;;;;;;5.74;96.13;99823.69;5021732;28;20204;-82
2021/03/12 01:46:35;;;;;;;;;;;;;;;5.68;96.80;99832.31;5020195;28;20020;-82
2021/03/12 01:49:04;;;;;;;;;;;;;;;5.64;97.30;99835.28;5024019;28;19932;-85
2021/03/12 01:51:29;;;;;;;;;;;;;;;5.62;96.56;99821.28;5025798;28;19985;-83
2021/03/12 01:53:54;;;;;;;;;;;;;;;5.62;96.80;99839.91;5024128;28;20015;-86
2021/03/12 01:56:20;;;;;;;;;;;;;;;5.61;97.78;99840.91;5025034;28;19921;-78
2021/03/12 01:58:46;;;;;;;;;;;;;;;5.59;97.38;99848.22;5026312;28;19935;-79
2021/03/12 02:01:12;;;;;;;;;;;;;;;5.58;96.38;99829.72;5025847;28;19929;-86
2021/03/12 02:03:37;;;;;;;;;;;;;;;5.59;96.46;99847.38;5013703;28;20395;-81
2021/03/12 02:06:03;;;;;;;;;;;;;;;5.58;96.28;99857.19;5022947;28;19960;-83
2021/03/12 02:08:28;;;;;;;;;;;;;;;5.57;96.24;99860.81;5025531;28;19925;-80
2021/03/12 02:10:54;;;;;;;;;;;;;;;5.57;96.19;99855.50;5019761;28;19928;-80
2021/03/12 02:13:26;;;;;;;;;;;;;;;5.57;95.32;99871.47;5018591;28;20435;-85
2021/03/12 02:15:54;;;;;;;;;;;;;;;5.57;95.29;99865.31;5024405;28;19929;-81
2021/03/12 02:18:31;;;;;;;;;;;;;;;5.55;95.18;99884.13;5026047;28;20378;-82
2021/03/12 02:20:58;;;;;;;;;;;;;;;5.56;94.90;99871.63;5022148;28;19999;-84
2021/03/12 02:23:35;;;;;;;;;;;;;;;5.55;95.31;99876.13;5001471;28;19932;-81
2021/03/12 02:26:07;;;;;;;;;;;;;;;5.58;94.43;99877.63;5019315;28;19931;-85
2021/03/12 02:28:33;;;;;;;;;;;;;;;5.60;93.85;99887.13;5019262;28;19928;-81
2021/03/12 02:30:58;;;;;;;;;;;;;;;5.60;94.48;99879.13;5005956;28;19994;-83
2021/03/12 02:33:25;;;;;;;;;;;;;;;5.58;95.04;99885.59;5035344;28;19957;-81
2021/03/12 02:35:54;;;;;;;;;;;;;;;5.56;94.78;99888.44;5022624;28;19971;-85
2021/03/12 02:38:22;;;;;;;;;;;;;;;5.57;94.61;99903.41;5025277;28;19978;-81
2021/03/12 02:40:47;;;;;;;;;;;;;;;5.54;94.81;99882.44;5016345;28;19921;-85
2021/03/12 02:43:14;;;;;;;;;;;;;;;5.54;94.96;99886.91;5023773;28;20462;-80
2021/03/12 02:45:40;;;;;;;;;;;;;;;5.54;94.87;99886.91;5023801;28;19921;-85
2021/03/12 02:48:05;;;;;;;;;;;;;;;5.55;94.79;99902.75;5025151;28;19929;-81
2021/03/12 02:50:31;;;;;;;;;;;;;;;5.54;94.56;99897.56;5024698;28;19987;-83
2021/03/12 02:52:57;;;;;;;;;;;;;;;5.54;94.54;99903.72;5025201;28;19928;-81
2021/03/12 02:55:22;;;;;;;;;;;;;;;5.56;93.99;99906.25;5027874;28;19917;-83
2021/03/12 02:57:48;;;;;;;;;;;;;;;5.56;93.59;99917.72;5027721;28;20351;-81
2021/03/12 03:00:14;;;;;;;;;;;;;;;5.55;93.57;99926.69;5025114;28;19917;-82
2021/03/12 03:02:40;;;;;;;;;;;;;;;5.56;93.38;99928.34;5023043;28;20016;-79
2021/03/12 03:05:06;;;;;;;;;;;;;;;5.55;93.71;99921.38;5039289;28;19987;-84
2021/03/12 03:07:31;;;;;;;;;;;;;;;5.54;93.68;99919.69;5021526;28;19925;-85
2021/03/12 03:09:57;;;;;;;;;;;;;;;5.54;93.74;99935.66;5022657;28;20395;-83
2021/03/12 03:12:24;;;;;;;;;;;;;;;5.53;93.68;99935.81;5038859;28;19921;-83
2021/03/12 03:14:51;;;;;;;;;;;;;;;5.51;93.74;99941.28;5020895;28;20295;-81
2021/03/12 03:17:17;;;;;;;;;;;;;;;5.52;93.58;99942.94;5039515;28;20008;-83
2021/03/12 03:19:44;;;;;;;;;;;;;;;5.51;93.40;99946.59;5036571;28;19944;-84
2021/03/12 03:22:10;;;;;;;;;;;;;;;5.49;93.69;99940.59;5021827;28;19921;-83
2021/03/12 03:24:35;;;;;;;;;;;;;;;5.50;93.08;99944.94;5022301;28;19927;-83
2021/03/12 03:27:01;;;;;;;;;;;;;;;5.48;93.08;99952.22;5021319;28;19940;-82
2021/03/12 03:29:26;;;;;;;;;;;;;;;5.49;92.92;99959.22;5019750;28;19928;-82
2021/03/12 03:31:51;;;;;;;;;;;;;;;5.48;93.43;99967.38;5013278;28;19981;-81
2021/03/12 03:34:17;;;;;;;;;;;;;;;5.48;92.70;99960.22;5021534;28;19928;-85
2021/03/12 03:36:42;;;;;;;;;;;;;;;5.49;92.62;99951.22;5022301;28;19921;-84
2021/03/12 03:39:08;;;;;;;;;;;;;;;5.49;92.78;99966.38;5025134;28;19932;-82
2021/03/12 03:41:37;;;;;;;;;;;;;;;5.47;93.66;99979.84;5028018;28;19925;-84
2021/03/12 03:44:03;;;;;;;;;;;;;;;5.43;94.14;99983.78;5026618;28;19925;-80
2021/03/12 03:46:28;;;;;;;;;;;;;;;5.40;94.43;99987.56;5029021;28;19999;-81
2021/03/12 03:48:54;;;;;;;;;;;;;;;5.38;94.41;99980.72;5026200;28;19928;-84
2021/03/12 03:51:21;;;;;;;;;;;;;;;5.37;93.71;99992.38;5027083;28;19921;-82
2021/03/12 03:53:47;;;;;;;;;;;;;;;5.36;93.64;99993.34;5021198;28;20441;-81
2021/03/12 03:56:14;;;;;;;;;;;;;;;5.35;93.50;99994.31;5022796;28;19965;-83
2021/03/12 03:58:39;;;;;;;;;;;;;;;5.35;94.03;99994.31;5025410;28;20284;-79
2021/03/12 04:01:06;;;;;;;;;;;;;;;5.32;93.32;99989.31;5027653;28;20012;-80
2021/03/12 04:03:31;;;;;;;;;;;;;;;5.33;93.44;99991.00;5025387;28;20379;-84
2021/03/12 04:05:57;;;;;;;;;;;;;;;5.31;92.10;100015.09;5025344;28;19969;-82
2021/03/12 04:08:23;;;;;;;;;;;;;;;5.31;92.34;100007.09;5025982;28;19991;-83
2021/03/12 04:10:49;;;;;;;;;;;;;;;5.31;92.53;100016.91;5025487;28;20395;-83
2021/03/12 04:13:15;;;;;;;;;;;;;;;5.31;92.07;100019.56;5027567;28;19928;-83
2021/03/12 04:15:40;;;;;;;;;;;;;;;5.31;92.25;100025.72;5007774;28;20005;-79
2021/03/12 04:18:07;;;;;;;;;;;;;;;5.29;92.14;100022.38;5008931;28;19924;-82
2021/03/12 04:20:33;;;;;;;;;;;;;;;5.27;92.03;100018.22;5029924;28;19917;-82
2021/03/12 04:22:58;;;;;;;;;;;;;;;5.25;91.90;100028.16;5030609;28;20306;-83
2021/03/12 04:25:24;;;;;;;;;;;;;;;5.23;91.70;100038.94;5026864;28;19982;-81
2021/03/12 04:27:50;;;;;;;;;;;;;;;5.23;91.06;100043.41;5023156;28;19925;-82
2021/03/12 04:30:15;;;;;;;;;;;;;;;5.20;91.87;100048.03;5024810;28;20012;-81
2021/03/12 04:32:41;;;;;;;;;;;;;;;5.20;91.46;100047.19;5025113;28;19936;-83
2021/03/12 04:35:07;;;;;;;;;;;;;;;5.19;91.64;100054.34;5022554;28;19922;-83
2021/03/12 04:37:33;;;;;;;;;;;;;;;5.18;92.00;100047.38;5024381;28;20307;-81
2021/03/12 04:39:59;;;;;;;;;;;;;;;5.15;91.97;100047.66;5024867;28;19932;-81
2021/03/12 04:42:25;;;;;;;;;;;;;;;5.13;91.65;100054.94;5026114;28;19921;-85
2021/03/12 04:44:50;;;;;;;;;;;;;;;5.12;91.61;100045.31;5024428;28;19924;-85
2021/03/12 04:47:16;;;;;;;;;;;;;;;5.08;91.38;100054.53;5021161;28;19975;-80
2021/03/12 04:49:45;;;;;;;;;;;;;;;5.06;91.21;100061.81;5028484;28;20395;-80
2021/03/12 04:52:11;;;;;;;;;;;;;;;5.01;91.56;100050.81;5025424;28;19921;-80
2021/03/12 04:54:37;;;;;;;;;;;;;;;4.97;91.86;100058.22;5028672;28;19917;-83
2021/03/12 04:57:03;;;;;;;;;;;;;;;4.94;91.52;100070.97;5026273;28;20402;-82
2021/03/12 04:59:29;;;;;;;;;;;;;;;4.90;91.18;100061.63;5031047;28;19925;-84
2021/03/12 05:01:54;;;;;;;;;;;;;;;4.88;91.68;100069.72;5031223;28;19921;-85
2021/03/12 05:04:21;;;;;;;;;;;;;;;4.85;91.53;100072.69;5006899;28;19937;-82
2021/03/12 05:06:47;;;;;;;;;;;;;;;4.82;91.54;100072.13;5016635;28;20414;-83
2021/03/12 05:09:13;;;;;;;;;;;;;;;4.81;91.91;100078.44;5024598;28;20114;-80
2021/03/12 05:11:41;;;;;;;;;;;;;;;4.79;91.69;100088.38;5025193;28;19968;-81
2021/03/12 05:14:07;;;;;;;;;;;;;;;4.75;91.60;100069.22;5023779;28;19925;-81
2021/03/12 05:16:32;;;;;;;;;;;;;;;4.78;91.36;100086.72;5022103;28;19951;-86
2021/03/12 05:18:58;;;;;;;;;;;;;;;4.74;91.95;100081.66;5020967;28;20380;-84
2021/03/12 05:21:24;;;;;;;;;;;;;;;4.77;91.61;100085.00;5010020;28;19933;-84
2021/03/12 05:23:49;;;;;;;;;;;;;;;4.81;91.22;100086.44;5008969;28;19924;-80
2021/03/12 05:26:15;;;;;;;;;;;;;;;4.84;90.97;100084.31;5024341;28;20387;-80
2021/03/12 05:28:40;;;;;;;;;;;;;;;4.86;91.14;100095.66;5010763;28;19921;-80
2021/03/12 05:31:07;;;;;;;;;;;;;;;4.88;91.30;100090.16;5034416;28;20032;-78
2021/03/12 05:33:32;;;;;;;;;;;;;;;4.88;90.93;100084.84;5018688;28;19936;-86
2021/03/12 05:35:57;;;;;;;;;;;;;;;4.88;91.38;100092.81;5017968;28;20052;-79
2021/03/12 05:38:24;;;;;;;;;;;;;;;4.86;91.70;100100.09;5019143;28;20240;-79
2021/03/12 05:40:49;;;;;;;;;;;;;;;4.84;91.28;100080.81;5021806;28;19917;-82
2021/03/12 05:43:14;;;;;;;;;;;;;;;4.81;91.87;100107.69;5021277;28;20897;-80
2021/03/12 05:45:41;;;;;;;;;;;;;;;4.78;92.11;100107.97;5012154;28;20375;-79
2021/03/12 05:48:07;;;;;;;;;;;;;;;4.74;92.28;100112.72;5033152;28;19921;-84
2021/03/12 05:50:32;;;;;;;;;;;;;;;4.69;92.24;100114.97;5036254;28;19932;-84
2021/03/12 05:52:57;;;;;;;;;;;;;;;4.64;93.11;100107.44;5024575;28;19925;-84
2021/03/12 05:55:23;;;;;;;;;;;;;;;4.60;93.00;100116.66;5027273;28;19983;-81
2021/03/12 05:57:48;;;;;;;;;;;;;;;4.55;93.40;100113.63;5028168;28;19949;-83
2021/03/12 06:00:15;;;;;;;;;;;;;;;4.52;93.61;100113.91;5025930;28;20354;-81
2021/03/12 06:02:40;;;;;;;;;;;;;;;4.50;93.84;100110.53;5026364;28;19921;-80
2021/03/12 06:05:09;;;;;;;;;;;;;;;4.46;93.74;100117.09;5022932;28;19963;-82
2021/03/12 06:07:35;;;;;;;;;;;;;;;4.43;93.88;100109.41;5044104;28;19921;-81
2021/03/12 06:10:00;;;;;;;;;;;;;;;4.42;94.60;100119.19;5025278;28;19971;-83
2021/03/12 06:12:25;;;;;;;;;;;;;;;4.37;94.21;100110.81;5021849;28;19925;-81
2021/03/12 06:14:52;;;;;;;;;;;;;;;4.35;94.21;100111.97;5024080;28;19921;-80
2021/03/12 06:17:33;;;;;;;;;;;;;;;4.31;94.43;100103.41;5027638;28;20268;-82
2021/03/12 06:19:59;;;;;;;;;;;;;;;4.30;94.86;100123.81;5018466;28;19924;-81
2021/03/12 06:22:24;;;;;;;;;;;;;;;4.30;94.96;100118.50;5025515;28;19921;-83
2021/03/12 06:24:50;;;;;;;;;;;;;;;4.27;95.02;100123.28;5020898;28;19925;-83
2021/03/12 06:27:28;;;;;;;;;;;;;;;4.27;95.18;100121.44;5022492;28;20405;-79
2021/03/12 06:29:58;;;;;;;;;;;;;;;4.27;95.10;100126.75;5018903;28;20318;-79
2021/03/12 06:32:35;;;;;;;;;;;;;;;4.28;95.08;100117.81;5020889;28;19928;-79
2021/03/12 06:35:00;;;;;;;;;;;;;;;4.26;95.20;100133.06;5022351;28;20375;-83
2021/03/12 06:37:28;;;;;;;;;;;;;;;4.29;95.12;100140.75;5024209;28;19927;-86
2021/03/12 06:39:53;;;;;;;;;;;;;;;4.28;95.01;100132.91;5020465;28;19967;-82
2021/03/12 06:42:18;;;;;;;;;;;;;;;4.29;94.64;100135.44;5021712;28;19952;-84
2021/03/12 06:44:47;;;;;;;;;;;;;;;4.32;94.78;100134.31;5012988;28;19932;-81
2021/03/12 06:47:19;;;;;;;;;;;;;;;4.30;94.46;100123.81;5028941;28;20020;-81
2021/03/12 06:49:58;;;;;;;;;;;;;;;4.32;94.69;100129.00;5025612;28;20011;-78
2021/03/12 06:52:33;;;;;;;;;;;;;;;4.33;94.50;100129.84;5022797;28;20424;-79
2021/03/12 06:54:58;;;;;;;;;;;;;;;4.35;94.92;100138.53;5042758;28;19948;-81
2021/03/12 06:57:24;;;;;;;;;;;;;;;4.32;94.31;100133.50;5027273;28;20531;-82
2021/03/12 07:00:05;;;;;;;;;;;;;;;4.35;94.47;100149.16;5028163;28;20011;-81
2021/03/12 07:02:35;;;;;;;;;;;;;;;4.35;94.30;100149.16;5027776;28;19918;-78
2021/03/12 07:05:00;;;;;;;;;;;;;;;4.37;94.39;100147.16;5022560;28;20342;-80
2021/03/12 07:07:33;;;;;;;;;;;;;;;4.38;94.05;100148.88;5022498;28;19993;-84
2021/03/12 07:09:58;;;;;;;;;;;;;;;4.40;94.10;100157.50;5031870;28;20375;-81
2021/03/12 07:12:43;;;;;;;;;;;;;;;4.38;93.74;100148.88;5023414;28;19924;-84
2021/03/12 07:15:09;;;;;;;;;;;;;;;4.40;93.27;100147.75;5023500;28;19987;-81
2021/03/12 07:17:34;;;;;;;;;;;;;;;4.43;93.84;100149.25;5025670;28;20004;-81
2021/03/12 07:20:00;;;;;;;;;;;;;;;4.44;93.56;100148.31;5028809;28;20035;-80
2021/03/12 07:22:28;;;;;;;;;;;;;;;4.47;93.16;100153.34;5026368;28;19955;-81
2021/03/12 07:24:54;;;;;;;;;;;;;;;4.51;93.61;100149.41;5026227;28;20403;-81
2021/03/12 07:27:20;;;;;;;;;;;;;;;4.50;92.91;100137.94;5021098;28;19933;-83
2021/03/12 07:29:46;;;;;;;;;;;;;;;4.50;92.43;100153.03;5010238;28;19921;-84
2021/03/12 07:32:13;;;;;;;;;;;;;;;4.52;92.40;100156.41;5012733;28;19924;-84
2021/03/12 07:34:39;;;;;;;;;;;;;;;4.57;92.96;100158.63;4995965;28;19921;-81
2021/03/12 07:37:06;;;;;;;;;;;;;;;4.58;92.26;100145.22;5004423;28;19928;-81
2021/03/12 07:39:44;;;;;;;;;;;;;;;4.64;91.97;100170.38;5001744;28;20185;-84
2021/03/12 07:42:15;;;;;;;;;;;;;;;4.67;91.96;100149.69;4999553;28;19972;-81
2021/03/12 07:44:43;;;;;;;;;;;;;;;4.73;91.99;100150.94;5007460;28;20006;-82
2021/03/12 07:47:08;;;;;;;;;;;;;;;4.79;92.00;100141.53;5007117;28;19930;-86
2021/03/12 07:49:34;;;;;;;;;;;;;;;4.82;91.19;100157.22;5020078;28;20588;-82
2021/03/12 07:52:00;;;;;;;;;;;;;;;4.86;91.02;100169.22;5004155;28;19932;-81
2021/03/12 07:54:36;;;;;;;;;;;;;;;4.88;90.93;100161.94;5003701;28;19921;-86
2021/03/12 07:57:02;;;;;;;;;;;;;;;4.90;90.92;100165.31;5008438;28;20301;-80
2021/03/12 07:59:46;;;;;;;;;;;;;;;4.95;91.16;100153.28;5013840;28;19932;-84
2021/03/12 08:02:11;;;;;;;;;;;;;;;4.99;90.53;100167.09;5026272;28;19925;-83
2021/03/12 08:04:37;;;;;;;;;;;;;;;5.05;91.18;100158.56;5030275;28;19917;-82
2021/03/12 08:07:17;;;;;;;;;;;;;;;5.10;90.47;100145.66;5031099;28;20217;-82
2021/03/12 08:09:50;;;;;;;;;;;;;;;5.12;90.12;100159.66;5030883;28;19940;-81
2021/03/12 08:12:37;;;;;;;;;;;;;;;5.16;89.86;100147.75;5025296;28;19933;-81
2021/03/12 08:15:08;;;;;;;;;;;;;;;5.24;89.81;100151.50;5018358;28;19925;-79
2021/03/12 08:17:34;;;;;;;;;;;;;;;5.31;89.10;100158.75;5025778;28;20287;-80
2021/03/12 08:20:19;;;;;;;;;;;;;;;5.35;88.50;100161.94;5009551;28;19925;-83
2021/03/12 08:22:45;;;;;;;;;;;;;;;5.43;89.18;100156.75;4993144;28;19921;-80
2021/03/12 08:25:10;;;;;;;;;;;;;;;5.47;88.92;100163.47;5008135;28;19924;-85
2021/03/12 08:27:36;;;;;;;;;;;;;;;5.51;88.70;100159.50;5026260;28;19929;-79
2021/03/12 08:30:02;;;;;;;;;;;;;;;5.55;88.64;100155.59;5027640;28;19917;-83
2021/03/12 08:32:39;;;;;;;;;;;;;;;5.57;88.23;100156.25;5027177;28;19932;-82
2021/03/12 08:35:05;;;;;;;;;;;;;;;5.58;87.71;100163.28;5024564;28;19925;-83
2021/03/12 08:37:31;;;;;;;;;;;;;;;5.61;88.38;100151.47;5016441;28;19971;-79
2021/03/12 08:40:14;;;;;;;;;;;;;;;5.65;88.38;100161.69;5024351;28;19929;-84
2021/03/12 08:43:00;;;;;;;;;;;;;;;5.72;87.97;100147.78;4986274;28;19928;-80
2021/03/12 08:45:31;;;;;;;;;;;;;;;5.76;87.23;100151.84;5042238;28;19924;-82
2021/03/12 08:48:01;;;;;;;;;;;;;;;5.82;87.54;100151.22;5027398;28;19925;-81
2021/03/12 08:50:26;;;;;;;;;;;;;;;5.84;86.70;100150.09;5042286;28;19944;-81
2021/03/12 08:52:51;;;;;;;;;;;;;;;5.85;86.30;100167.75;5026393;28;20423;-83
2021/03/12 08:55:17;;;;;;;;;;;;;;;5.87;86.55;100144.47;5007986;28;19975;-83
2021/03/12 08:57:42;;;;;;;;;;;;;;;5.94;87.01;100142.06;5024633;28;20363;-82
2021/03/12 09:00:09;;;;;;;;;;;;;;;6.02;86.39;100158.16;5023500;28;19936;-85
2021/03/12 09:02:34;;;;;;;;;;;;;;;6.07;85.73;100160.34;5019231;28;20414;-83
2021/03/12 09:04:59;;;;;;;;;;;;;;;6.08;85.63;100170.84;5024543;28;19960;-84
2021/03/12 09:07:24;;;;;;;;;;;;;;;6.13;85.33;100153.56;5020309;28;19929;-82
2021/03/12 09:09:50;;;;;;;;;;;;;;;6.16;85.32;100147.94;5022638;28;20512;-85
2021/03/12 09:12:15;;;;;;;;;;;;;;;6.24;85.27;100153.34;5023657;28;19928;-84
2021/03/12 09:14:40;;;;;;;;;;;;;;;6.28;85.24;100142.25;5038315;28;19969;-82
2021/03/12 09:17:05;;;;;;;;;;;;;;;6.31;84.63;100141.94;5040892;28;20307;-80
2021/03/12 09:19:31;;;;;;;;;;;;;;;6.38;85.01;100141.34;5019926;28;19921;-82
2021/03/12 09:21:56;;;;;;;;;;;;;;;6.42;84.46;100154.22;5025593;28;19917;-81
2021/03/12 09:24:22;;;;;;;;;;;;;;;6.45;83.47;100137.91;5027780;28;19953;-79
2021/03/12 09:26:47;;;;;;;;;;;;;;;6.54;84.13;100141.47;5028018;28;19921;-83
2021/03/12 09:29:12;;;;;;;;;;;;;;;6.62;84.05;100141.56;5010387;28;19917;-86
2021/03/12 09:31:39;;;;;;;;;;;;;;;6.67;82.60;100147.22;5015216;28;19923;-82
2021/03/12 09:34:06;;;;;;;;;;;;;;;6.70;82.43;100136.28;5029082;28;19917;-84
2021/03/12 09:36:33;;;;;;;;;;;;;;;6.70;82.75;100135.44;5028544;28;19982;-84
2021/03/12 09:39:10;;;;;;;;;;;;;;;6.72;82.31;100122.78;5028208;28;19927;-82
2021/03/12 09:41:35;;;;;;;;;;;;;;;6.81;81.81;100131.69;5036753;28;19925;-82
2021/03/12 09:44:03;;;;;;;;;;;;;;;6.94;82.10;100103.59;5027966;28;20264;-82
2021/03/12 09:46:29;;;;;;;;;;;;;;;7.15;81.18;100118.38;5029579;28;19925;-81
2021/03/12 09:48:54;;;;;;;;;;;;;;;7.26;81.12;100107.44;5029675;28;19917;-80
2021/03/12 09:51:20;;;;;;;;;;;;;;;7.33;81.07;100113.81;5027806;28;19921;-81
2021/03/12 09:53:47;;;;;;;;;;;;;;;7.32;79.22;100124.66;5040518;28;20106;-82
2021/03/12 09:56:13;;;;;;;;;;;;;;;7.23;80.07;100105.09;5007932;28;19924;-83
2021/03/12 09:58:38;;;;;;;;;;;;;;;7.23;79.82;100086.41;5038469;28;19920;-81
2021/03/12 10:01:10;;;;;;;;;;;;;;;7.23;79.49;100094.41;5035757;28;19917;-83
2021/03/12 10:03:35;;;;;;;;;;;;;;;7.24;80.64;100106.75;5017848;28;19964;-83
2021/03/12 10:06:10;;;;;;;;;;;;;;;7.23;80.42;100105.09;5015263;28;19921;-82
2021/03/12 10:08:56;;;;;;;;;;;;;;;7.20;79.54;100094.75;5000646;28;19918;-83
2021/03/12 10:11:21;;;;;;;;;;;;;;;7.22;79.73;100103.41;5028351;28;19928;-83
2021/03/12 10:13:46;;;;;;;;;;;;;;;7.24;80.00;100117.44;5024734;28;19921;-83
2021/03/12 10:16:12;;;;;;;;;;;;;;;7.21;79.43;100088.41;5026641;28;19924;-83
2021/03/12 10:18:37;;;;;;;;;;;;;;;7.16;79.73;100082.69;5029771;28;19917;-81
2021/03/12 10:21:09;;;;;;;;;;;;;;;7.15;79.84;100081.88;5029061;28;19917;-81
2021/03/12 10:23:34;;;;;;;;;;;;;;;7.11;80.20;100069.84;5023129;28;19976;-83
2021/03/12 10:26:03;;;;;;;;;;;;;;;7.06;80.09;100077.50;5014196;28;20346;-81
2021/03/12 10:28:29;;;;;;;;;;;;;;;7.05;80.81;100075.81;5016067;28;20291;-80
2021/03/12 10:30:57;;;;;;;;;;;;;;;7.06;80.79;100079.31;5018085;28;19917;-82
2021/03/12 10:33:24;;;;;;;;;;;;;;;7.07;80.89;100076.47;5008160;28;19922;-85
2021/03/12 10:35:49;;;;;;;;;;;;;;;7.07;80.89;100056.97;5004551;28;19922;-85
2021/03/12 10:38:21;;;;;;;;;;;;;;;7.10;80.97;100080.66;5020611;28;19944;-83
2021/03/12 10:40:56;;;;;;;;;;;;;;;7.11;80.37;100063.69;5000835;28;19918;-83
2021/03/12 10:43:22;;;;;;;;;;;;;;;7.14;81.16;100064.19;5035655;28;20446;-85
2021/03/12 10:45:47;;;;;;;;;;;;;;;7.17;80.28;100063.88;4999601;28;19918;-84
2021/03/12 10:48:13;;;;;;;;;;;;;;;7.21;80.62;100037.69;5024510;28;19917;-83
2021/03/12 10:50:38;;;;;;;;;;;;;;;7.23;79.91;100036.53;5028993;28;20249;-85
2021/03/12 10:53:09;;;;;;;;;;;;;;;7.26;80.05;100024.72;5043734;28;19917;-83
2021/03/12 10:55:36;;;;;;;;;;;;;;;7.28;79.39;100022.72;5020479;28;19921;-85
2021/03/12 10:58:01;;;;;;;;;;;;;;;7.33;80.72;100038.25;5012755;28;20376;-84
2021/03/12 11:00:28;;;;;;;;;;;;;;;7.35;80.31;100021.06;5026109;28;19924;-86
2021/03/12 11:02:58;;;;;;;;;;;;;;;7.37;80.15;100015.59;5028895;28;19924;-84
2021/03/12 11:05:23;;;;;;;;;;;;;;;7.33;79.71;100031.06;5042957;28;19921;-84
2021/03/12 11:07:49;;;;;;;;;;;;;;;7.24;80.65;100008.84;5028407;28;19921;-84
2021/03/12 11:10:15;;;;;;;;;;;;;;;7.22;81.36;99991.31;5024151;28;19924;-81
2021/03/12 11:12:42;;;;;;;;;;;;;;;7.19;80.31;100003.19;5017947;28;19917;-82
2021/03/12 11:15:08;;;;;;;;;;;;;;;7.22;81.09;100026.00;5012178;28;19921;-82
2021/03/12 11:17:34;;;;;;;;;;;;;;;7.18;81.50;100016.69;5009060;28;19940;-83
2021/03/12 11:19:59;;;;;;;;;;;;;;;7.17;81.95;100012.34;5015632;28;20430;-83
2021/03/12 11:22:24;;;;;;;;;;;;;;;7.08;83.44;100022.16;5021639;28;20003;-84
2021/03/12 11:24:50;;;;;;;;;;;;;;;7.02;84.78;100022.78;5002573;28;19963;-83
2021/03/12 11:27:16;;;;;;;;;;;;;;;6.82;85.98;100003.53;5028253;28;19928;-80
2021/03/12 11:29:42;;;;;;;;;;;;;;;6.74;87.26;100016.81;5027456;28;19917;-85
2021/03/12 11:32:07;;;;;;;;;;;;;;;6.72;89.38;100014.28;5043493;28;19921;-81
2021/03/12 11:34:32;;;;;;;;;;;;;;;6.63;90.14;100035.75;5028403;28;19968;-80
2021/03/12 11:36:58;;;;;;;;;;;;;;;6.58;89.92;100003.38;5027419;28;19928;-83
2021/03/12 11:39:24;;;;;;;;;;;;;;;6.59;90.81;100005.91;5026464;28;20371;-82
2021/03/12 11:41:49;;;;;;;;;;;;;;;6.60;90.92;99991.56;5027762;28;19963;-85
2021/03/12 11:44:14;;;;;;;;;;;;;;;6.62;91.11;99996.72;5026227;28;19956;-84
2021/03/12 11:46:40;;;;;;;;;;;;;;;6.60;91.20;99996.91;5028364;28;20437;-81
2021/03/12 11:49:05;;;;;;;;;;;;;;;6.60;91.33;100006.72;5010270;28;20334;-81
2021/03/12 11:51:30;;;;;;;;;;;;;;;6.53;89.84;100018.03;5028618;28;19932;-82
2021/03/12 11:53:55;;;;;;;;;;;;;;;6.49;91.06;100021.97;5011470;28;19925;-84
2021/03/12 11:56:21;;;;;;;;;;;;;;;6.36;91.95;100010.91;5027876;28;19996;-81
2021/03/12 11:58:46;;;;;;;;;;;;;;;6.22;92.52;100016.81;5008115;28;20004;-83
2021/03/12 12:01:11;;;;;;;;;;;;;;;6.19;94.20;99998.47;5017186;28;19917;-80
2021/03/12 12:03:36;;;;;;;;;;;;;;;6.21;96.09;100004.47;5010391;28;20372;-84
2021/03/12 12:06:02;;;;;;;;;;;;;;;6.22;94.01;99992.84;5012180;28;20287;-81
2021/03/12 12:08:27;;;;;;;;;;;;;;;6.25;93.40;99976.53;5014581;28;19956;-83
2021/03/12 12:10:52;;;;;;;;;;;;;;;6.28;93.58;99989.53;5027604;28;19925;-84
2021/03/12 12:13:17;;;;;;;;;;;;;;;6.26;92.76;99995.00;5021846;28;19921;-83
2021/03/12 12:15:43;;;;;;;;;;;;;;;6.26;94.16;99979.03;5012660;28;19968;-84
2021/03/12 12:18:10;;;;;;;;;;;;;;;6.26;95.46;99967.53;5029556;28;19920;-82
2021/03/12 12:20:42;;;;;;;;;;;;;;;6.21;94.54;99959.16;5016697;28;20011;-81
2021/03/12 12:23:07;;;;;;;;;;;;;;;6.22;95.17;99975.00;5028912;28;19918;-87
2021/03/12 12:25:32;;;;;;;;;;;;;;;6.24;95.58;99964.19;5029688;28;19947;-87
2021/03/12 12:27:58;;;;;;;;;;;;;;;6.20;95.91;99965.50;5028494;28;19936;-81
2021/03/12 12:30:23;;;;;;;;;;;;;;;6.17;95.65;99956.00;5026762;28;19925;-82
2021/03/12 12:32:48;;;;;;;;;;;;;;;6.23;96.61;99951.88;5030485;28;19927;-82
2021/03/12 12:35:14;;;;;;;;;;;;;;;6.22;96.32;99950.19;5023195;28;19921;-83
2021/03/12 12:37:39;;;;;;;;;;;;;;;6.23;96.95;99942.03;5031716;28;19917;-81
2021/03/12 12:40:05;;;;;;;;;;;;;;;6.27;96.70;99937.22;5031718;28;20371;-82
2021/03/12 12:42:31;;;;;;;;;;;;;;;6.30;96.35;99931.56;5026732;28;20403;-82
2021/03/12 12:44:56;;;;;;;;;;;;;;;6.35;96.96;99912.47;5046088;28;19924;-80
2021/03/12 12:47:22;;;;;;;;;;;;;;;6.37;95.85;99908.66;5021318;28;20312;-83
2021/03/12 12:49:47;;;;;;;;;;;;;;;6.43;95.94;99899.19;5029537;28;19925;-85